Flight Track Log - Related Links

Times and Time Zones

All times are in EDT time to prevent confusion due to time zone crossing. See the A6-EDY flight status page for this flight to view local times or setup timezone preferences in your user account.


Time Position Orientation Groundspeed Altitude Reporting Facility
EDT Latitude Longitude Course Direction KTS MPH feet Rate Location/Type
Fri 02:54:22 AM 25.2300 55.4060 294° West 184 212 700  Level FlightAware ADS-B
Fri 02:54:37 AM 25.2240 55.4160 124° Southeast 188 216 1,000 1,200 Climbing FlightAware ADS-B
Fri 02:54:52 AM 25.2170 55.4300 119° Southeast 188 216 1,300 1,673 Climbing FlightAware ADS-B
Fri 02:56:52 AM 25.1400 55.5670 122° Southeast 4,700 1,720 Climbing FlightAware ADS-B
Fri 02:57:22 AM 25.1210 55.6010 122° Southeast 275 316 5,600 1,286 Climbing FlightAware ADS-B
Fri 02:58:02 AM 25.0960 55.6470 121° Southeast 276 318 6,200 2,143 Climbing FlightAware ADS-B
Fri 02:58:32 AM 25.0730 55.6880 122° Southeast 275 316 8,100 3,000 Climbing FlightAware ADS-B
Fri 02:58:52 AM 25.0540 55.7080 136° Southeast 284 327 8,700 1,680 Climbing FlightAware ADS-B
Fri 02:59:22 AM 25.0230 55.7330 144° Southeast 293 337 9,500 1,360 Climbing FlightAware ADS-B
Fri 03:00:07 AM 24.9720 55.7780 141° Southeast 296 341 10,400 635 Climbing FlightAware ADS-B
Fri 03:00:47 AM 24.9360 55.8110 140° Southeast 296 341 10,400  Level FlightAware ADS-B
Fri 03:01:27 AM 24.9010 55.8440 139° Southeast 296 341 10,400 2,025 Level FlightAware ADS-B
Fri 03:02:07 AM 24.8030 55.9200 145° Southeast 390 449 13,100 2,640 Climbing FlightAware ADS-B
Fri 03:03:07 AM 24.7250 55.9960 138° Southeast 403 464 14,800 1,673 Climbing FlightAware ADS-B
Fri 03:04:52 AM 24.5690 56.1570 125° Southeast 432 497 17,700 1,600 Climbing FlightAware ADS-B
Fri 03:05:00 AM 24.5819 56.2174 125° Southeast  Level Estimated
Fri 03:05:52 AM 24.4880 56.2610 131° Southeast 444 511 19,200  Level FlightAware ADS-B
Fri 03:06:32 AM 24.4360 56.3270 131° Southeast 455 524 20,000 1,257 Climbing FlightAware ADS-B
Fri 03:07:37 AM 24.3420 56.4460 131° Southeast 469 540 21,400 1,418 Climbing FlightAware ADS-B
Fri 03:08:22 AM 24.2770 56.5330 129° Southeast 478 550 22,600 1,575 Climbing FlightAware ADS-B
Fri 03:08:57 AM 24.2360 56.5960 126° Southeast 476 548 23,500 1,067 Climbing FlightAware ADS-B
Fri 03:09:52 AM 24.1660 56.7030 126° Southeast 476 548 24,200 1,200 Climbing FlightAware ADS-B
Fri 03:10:47 AM 24.0880 56.8180 127° Southeast 489 563 25,700 1,200 Climbing FlightAware ADS-B
Fri 03:11:32 AM 24.0280 56.9080 126° Southeast 497 572 26,200 660 Climbing FlightAware ADS-B
Fri 03:12:27 AM 23.9540 57.0200 126° Southeast 497 572 26,800 720 Climbing FlightAware ADS-B
Fri 03:13:12 AM 23.8950 57.1080 126° Southeast 497 572 27,400 424 Climbing FlightAware ADS-B
Fri 03:13:52 AM 23.8510 57.1780 124° Southeast 497 572 27,400  Level FlightAware ADS-B
Fri 03:14:32 AM 23.8060 57.2480 125° Southeast 497 572 27,400  Level FlightAware ADS-B
Fri 03:15:22 AM 23.7500 57.3350 125° Southeast 497 572 27,400  Level FlightAware ADS-B
Fri 03:16:02 AM 23.7050 57.4050 125° Southeast 497 572 27,400  Level FlightAware ADS-B
Fri 03:16:42 AM 23.6600 57.4750 125° Southeast 497 572 27,400 37 Level FlightAware ADS-B
Fri 03:19:00 AM 23.4826 57.7409 126° Southeast  Level Estimated
Fri 03:20:00 AM 23.4053 57.8563 126° Southeast  Level Estimated
Fri 03:21:00 AM 23.3279 57.9716 126° Southeast  Level Estimated
Fri 03:22:00 AM 23.2418 58.0842 130° Southeast  Level FlightAware Approximate
Fri 03:23:00 AM 23.1555 58.1966 130° Southeast  Level FlightAware Approximate
Fri 03:24:00 AM 23.0692 58.3089 130° Southeast  Level FlightAware Approximate
Fri 03:25:00 AM 22.9712 58.4066 149° Southeast  Level FlightAware Approximate
Fri 03:26:00 AM 22.8563 58.4827 149° Southeast  Level FlightAware Approximate
Fri 03:27:00 AM 22.7414 58.5588 149° Southeast  Level FlightAware Approximate
Fri 05:46:42 AM 7.1400 71.3460 142° Southeast 481 554 33,000  Level FlightAware ADS-B
Fri 05:47:32 AM 7.0650 71.4270 133° Southeast 479 551 33,000  Level FlightAware ADS-B
Fri 05:48:17 AM 6.9980 71.5010 132° Southeast 482 555 33,000  Level FlightAware ADS-B
Fri 05:48:57 AM 6.9420 71.5630 132° Southeast 480 552 33,000  Level FlightAware ADS-B
Fri 05:49:42 AM 6.8820 71.6310 132° Southeast 480 552 33,000  Level FlightAware ADS-B
Fri 05:50:22 AM 6.8310 71.6870 133° Southeast 480 552 33,000  Level FlightAware ADS-B
Fri 05:51:02 AM 6.7810 71.7440 131° Southeast 480 552 33,000  Level FlightAware ADS-B
Fri 05:51:52 AM 6.6730 71.8580 134° Southeast 33,000  Level FlightAware ADS-B
Fri 05:52:47 AM 6.5980 71.9420 132° Southeast 484 557 33,000  Level FlightAware ADS-B
Fri 05:53:32 AM 6.5270 72.0190 133° Southeast 33,000  Level FlightAware ADS-B
Fri 05:54:12 AM 6.4680 72.0840 132° Southeast 482 555 33,000  Level FlightAware ADS-B
Fri 05:54:52 AM 6.4070 72.1500 133° Southeast 477 549 33,000 141 Level FlightAware ADS-B
Fri 05:55:37 AM 6.3400 72.2240 132° Southeast 483 556 33,200 494 Climbing FlightAware ADS-B
Fri 05:56:17 AM 6.2750 72.2940 133° Southeast 481 554 33,700 1,350 Climbing FlightAware ADS-B
Fri 05:56:57 AM 6.2120 72.3640 132° Southeast 462 532 35,000 867 Climbing FlightAware ADS-B
Fri 05:57:47 AM 6.1410 72.4410 133° Southeast 463 533 35,000  Level FlightAware ADS-B
Fri 05:58:22 AM 6.0910 72.4950 133° Southeast 464 534 35,000  Level FlightAware ADS-B
Fri 05:59:07 AM 6.0350 72.5600 131° Southeast 464 534 35,000  Level FlightAware ADS-B
Fri 05:59:57 AM 5.9480 72.6520 134° Southeast 463 533 35,000  Level FlightAware ADS-B
Fri 06:00:37 AM 5.8940 72.7110 133° Southeast 462 532 35,000  Level FlightAware ADS-B
Fri 06:01:22 AM 5.8230 72.7880 133° Southeast 461 531 35,000  Level FlightAware ADS-B
Fri 06:01:52 AM 5.7800 72.8360 132° Southeast 461 531 35,000  Level FlightAware ADS-B
Fri 06:02:42 AM 5.7090 72.9120 133° Southeast 461 531 35,000  Level FlightAware ADS-B
Fri 06:03:27 AM 5.6410 72.9870 132° Southeast 462 532 35,000  Level FlightAware ADS-B
Fri 06:04:07 AM 5.5820 73.0520 132° Southeast 463 533 35,000  Level FlightAware ADS-B
Fri 06:04:52 AM 5.5160 73.1230 133° Southeast 461 531 35,000  Level FlightAware ADS-B
Fri 06:05:32 AM 5.4570 73.1870 133° Southeast 461 531 35,000  Level FlightAware ADS-B
Fri 06:06:12 AM 5.3990 73.2510 132° Southeast 462 532 35,000  Level FlightAware ADS-B
Fri 06:06:57 AM 5.3310 73.3240 133° Southeast 463 533 35,000  Level FlightAware ADS-B
Fri 06:07:37 AM 5.2740 73.3870 132° Southeast 464 534 35,000  Level FlightAware ADS-B
Fri 06:08:22 AM 5.2060 73.4610 133° Southeast 465 535 35,000  Level FlightAware ADS-B
Fri 06:09:02 AM 5.1480 73.5240 133° Southeast 465 535 35,000  Level FlightAware ADS-B
Fri 06:09:42 AM 5.0890 73.5880 133° Southeast 464 534 35,000  Level FlightAware ADS-B
Fri 06:10:27 AM 5.0220 73.6610 133° Southeast 465 535 35,000  Level FlightAware ADS-B
Fri 06:11:07 AM 4.9640 73.7240 133° Southeast 472 543 35,000  Level FlightAware ADS-B
Fri 06:11:52 AM 4.8980 73.7950 133° Southeast 472 543 35,000  Level FlightAware ADS-B
Fri 06:12:32 AM 4.8360 73.8630 132° Southeast 466 536 35,000  Level FlightAware ADS-B
Fri 06:13:12 AM 4.7760 73.9280 133° Southeast 471 542 35,000  Level FlightAware ADS-B
Fri 06:13:57 AM 4.7110 73.9980 133° Southeast 471 542 35,000  Level FlightAware ADS-B
Fri 06:14:37 AM 4.6510 74.0630 133° Southeast 465 535 35,000  Level FlightAware ADS-B
Fri 06:15:17 AM 4.5970 74.1210 133° Southeast 465 535 35,000  Level FlightAware ADS-B
Fri 06:16:02 AM 4.5230 74.2020 133° Southeast 472 543 35,000  Level FlightAware ADS-B
Fri 06:16:37 AM 4.4710 74.2590 132° Southeast 471 542 35,000  Level FlightAware ADS-B
Fri 06:17:27 AM 4.3990 74.3360 133° Southeast 463 533 35,000  Level FlightAware ADS-B
Fri 06:18:07 AM 4.3420 74.3990 132° Southeast 461 531 35,000  Level FlightAware ADS-B
Fri 06:18:47 AM 4.2830 74.4620 133° Southeast 458 527 35,000  Level FlightAware ADS-B
Fri 06:19:32 AM 4.2220 74.5290 132° Southeast 457 526 35,000  Level FlightAware ADS-B
Fri 06:20:12 AM 4.1580 74.5980 133° Southeast 456 525 35,000  Level FlightAware ADS-B
Fri 06:20:57 AM 4.0930 74.6690 133° Southeast 457 526 35,000  Level FlightAware ADS-B
Fri 06:21:37 AM 4.0400 74.7250 133° Southeast 459 528 35,000  Level FlightAware ADS-B
Fri 06:22:22 AM 3.9730 74.7980 133° Southeast 460 529 35,000  Level FlightAware ADS-B
Fri 06:23:02 AM 3.9100 74.8660 133° Southeast 460 529 35,000  Level FlightAware ADS-B
Fri 06:23:57 AM 3.8380 74.9470 132° Southeast 461 531 35,000  Level FlightAware ADS-B
Fri 06:24:47 AM 3.7620 75.0260 134° Southeast 459 528 35,000  Level FlightAware ADS-B
Fri 06:25:37 AM 3.6840 75.1100 133° Southeast 466 536 35,000  Level FlightAware ADS-B
Fri 06:26:22 AM 3.6200 75.1800 132° Southeast 461 531 35,000  Level FlightAware ADS-B
Fri 06:26:52 AM 3.5750 75.2280 133° Southeast 462 532 35,000  Level FlightAware ADS-B
Fri 06:27:37 AM 3.5090 75.2990 133° Southeast 463 533 35,000  Level FlightAware ADS-B
Fri 06:28:22 AM 3.4390 75.3750 133° Southeast 469 540 35,000  Level FlightAware ADS-B
Fri 06:29:07 AM 3.3770 75.4420 133° Southeast 462 532 35,000  Level FlightAware ADS-B
Fri 06:29:47 AM 3.3150 75.5090 133° Southeast 461 531 35,000  Level FlightAware ADS-B
Fri 06:30:42 AM 3.2360 75.5940 133° Southeast 459 528 35,000  Level FlightAware ADS-B
Fri 06:31:27 AM 3.1680 75.6670 133° Southeast 459 528 35,000  Level FlightAware ADS-B
Fri 06:32:02 AM 3.1240 75.7180 131° Southeast 459 528 35,000  Level FlightAware ADS-B
Fri 06:32:42 AM 3.0770 75.7720 131° Southeast 459 528 35,000  Level FlightAware ADS-B
Fri 06:33:32 AM 2.9860 75.8640 135° Southeast 477 549 35,000  Level FlightAware ADS-B
Fri 06:34:12 AM 2.9360 75.9200 132° Southeast 477 549 35,000  Level FlightAware ADS-B
Fri 06:34:47 AM 2.8730 75.9860 134° Southeast 477 549 35,000  Level FlightAware ADS-B
Fri 06:35:37 AM 2.7910 76.0740 133° Southeast 477 549 35,000  Level FlightAware ADS-B
Fri 06:36:12 AM 2.7470 76.1250 131° Southeast 477 549 35,000  Level FlightAware ADS-B
Fri 06:36:42 AM 2.7100 76.1680 131° Southeast 477 549 35,000  Level FlightAware ADS-B
Fri 06:37:22 AM 2.6610 76.2240 131° Southeast 477 549 35,000  Level FlightAware ADS-B
Fri 06:38:12 AM 2.5990 76.2950 131° Southeast 477 549 35,000  Level FlightAware ADS-B
Fri 06:38:52 AM 2.5500 76.3520 131° Southeast 477 549 35,000  Level FlightAware ADS-B
Fri 06:39:32 AM 2.5010 76.4080 131° Southeast 477 549 35,000  Level FlightAware ADS-B
Fri 06:40:27 AM 2.3520 76.5480 137° Southeast 481 554 35,000  Level FlightAware ADS-B
Fri 06:41:12 AM 2.2870 76.6180 133° Southeast 480 552 35,000  Level FlightAware ADS-B
Fri 06:41:52 AM 2.2370 76.6740 132° Southeast 480 552 35,000 15 Level FlightAware ADS-B
Fri 12:12:35 PM -29.9822 111.5247 123° Southeast 548 631 40,000 15 Climbing Aus ATC (RADAR)
Fri 12:12:37 PM -29.9590 111.5310 123° Southeast 536 617 40,000  Level FlightAware ADS-B
Fri 12:13:22 PM -30.0240 111.6380 125° Southeast 536 617 40,000  Level FlightAware ADS-B
Fri 12:13:55 PM -30.0889 111.7146 125° Southeast 509 586 40,000  Level Aus ATC (RADAR)
Fri 12:13:57 PM -30.0710 111.7140 125° Southeast 535 616 40,000  Level FlightAware ADS-B
Fri 12:14:42 PM -30.1300 111.8110 125° Southeast 535 616 40,000 72 Level FlightAware ADS-B
Fri 12:15:20 PM -30.1896 111.9208 125° Southeast 505 581 40,100  Climbing Aus ATC (RADAR)
Fri 12:15:27 PM -30.2040 111.9320 125° Southeast 532 612 40,000  Descending FlightAware ADS-B
Fri 12:15:59 PM -30.2472 112.0126 125° Southeast 505 581 40,100  Climbing Aus ATC (RADAR)
Fri 12:16:07 PM -30.2570 112.0200 125° Southeast 530 610 40,000  Descending FlightAware ADS-B
Fri 12:17:04 PM -30.3382 112.1627 125° Southeast 504 580 40,100  Climbing Aus ATC (RADAR)
Fri 12:17:07 PM -30.3380 112.1540 125° Southeast 529 609 40,000 -125 Descending FlightAware ADS-B
Fri 12:17:52 PM -30.4020 112.2590 125° Southeast 525 604 40,000 78 Level FlightAware ADS-B
Fri 12:18:24 PM -30.4509 112.3476 125° Southeast 505 581 40,100  Climbing Aus ATC (RADAR)
Fri 12:18:37 PM -30.4650 112.3640 125° Southeast 525 604 40,000  Descending FlightAware ADS-B
Fri 12:19:24 PM -30.5343 112.4870 125° Southeast 495 570 40,100  Climbing Aus ATC (RADAR)
Fri 12:19:27 PM -30.5340 112.4790 125° Southeast 524 603 40,000 -125 Descending FlightAware ADS-B
Fri 12:20:12 PM -30.6000 112.5880 125° Southeast 525 604 40,000 97 Level FlightAware ADS-B
Fri 12:20:29 PM -30.6283 112.6377 125° Southeast 507 583 40,100  Climbing Aus ATC (RADAR)
Fri 12:20:47 PM -30.6490 112.6710 125° Southeast 525 604 40,000  Descending FlightAware ADS-B
Fri 12:21:34 PM -30.7154 112.7900 125° Southeast 499 574 40,100  Climbing Aus ATC (RADAR)
Fri 12:21:37 PM -30.7150 112.7810 125° Southeast 526 605 40,000 -182 Descending FlightAware ADS-B
Fri 12:22:07 PM -30.7610 112.8580 125° Southeast 527 606 40,000 97 Level FlightAware ADS-B
Fri 12:22:39 PM -30.8085 112.9424 125° Southeast 511 588 40,100  Climbing Aus ATC (RADAR)
Fri 12:22:57 PM -30.8270 112.9700 125° Southeast 527 606 40,000  Descending FlightAware ADS-B
Fri 12:23:39 PM -30.8908 113.0828 125° Southeast 507 583 40,100  Climbing Aus ATC (RADAR)
Fri 12:23:42 PM -30.8920 113.0790 125° Southeast 526 605 40,000 -140 Descending FlightAware ADS-B
Fri 12:24:22 PM -30.9470 113.1730 124° Southeast 525 604 40,000 90 Level FlightAware ADS-B
Fri 12:24:49 PM -30.9894 113.2459 124° Southeast 504 580 40,100  Climbing Aus ATC (RADAR)
Fri 12:25:02 PM -31.0040 113.2700 124° Southeast 525 604 40,000  Descending FlightAware ADS-B
Fri 12:25:48 PM -31.0703 113.3866 124° Southeast 502 578 40,100  Climbing Aus ATC (RADAR)
Fri 12:26:02 PM -31.0830 113.4040 124° Southeast 525 604 40,000 -111 Descending FlightAware ADS-B
Fri 12:26:42 PM -31.1430 113.5060 125° Southeast 525 604 40,000  Level FlightAware ADS-B
Fri 12:27:37 PM -31.2190 113.6370 124° Southeast 524 603 40,000  Level FlightAware ADS-B
Fri 12:28:17 PM -31.2700 113.7240 124° Southeast 524 603 40,000 79 Level FlightAware ADS-B
Fri 12:28:53 PM -31.3255 113.8218 124° Southeast 504 580 40,100  Climbing Aus ATC (RADAR)
Fri 12:28:57 PM -31.3260 113.8210 124° Southeast 523 602 40,000 -122 Descending FlightAware ADS-B
Fri 12:29:42 PM -31.3900 113.9310 124° Southeast 526 605 40,000 98 Level FlightAware ADS-B
Fri 12:29:58 PM -31.4143 113.9750 124° Southeast 507 583 40,100  Climbing Aus ATC (RADAR)
Fri 12:30:22 PM -31.4410 114.0190 124° Southeast 522 601 40,000 -87 Descending FlightAware ADS-B
Fri 12:31:07 PM -31.5020 114.1250 124° Southeast 527 606 40,000  Level FlightAware ADS-B
Fri 12:31:47 PM -31.5560 114.2190 124° Southeast 527 606 40,000 98 Level FlightAware ADS-B
Fri 12:32:08 PM -31.5906 114.2819 124° Southeast 506 582 40,100  Climbing Aus ATC (RADAR)
Fri 12:32:27 PM -31.6120 114.3170 124° Southeast 528 608 40,000 -102 Descending FlightAware ADS-B
Fri 12:33:07 PM -31.6690 114.4170 124° Southeast 529 609 40,000 98 Level FlightAware ADS-B
Fri 12:33:28 PM -31.7000 114.4720 124° Southeast 513 590 40,100  Climbing Aus ATC (RADAR)
Fri 12:33:52 PM -31.7280 114.5210 124° Southeast 529 609 40,000 122 Descending FlightAware ADS-B
Fri 12:34:17 PM -31.7681 114.5909 124° Southeast 511 588 40,200  Climbing Aus ATC (RADAR)
Fri 12:34:32 PM -31.7840 114.6190 124° Southeast 530 610 40,000 -200 Descending FlightAware ADS-B
Fri 12:35:17 PM -31.8440 114.7250 124° Southeast 530 610 40,000  Level FlightAware ADS-B
Fri 12:35:57 PM -31.8970 114.8180 124° Southeast 531 611 40,000 150 Level FlightAware ADS-B
Fri 12:36:37 PM -31.9585 114.9265 124° Southeast 515 593 40,200  Climbing Aus ATC (RADAR)
Fri 12:36:42 PM -31.9580 114.9250 124° Southeast 532 612 40,000 -267 Descending FlightAware ADS-B
Fri 12:37:22 PM -32.0120 115.0250 123° Southeast 530 610 40,000 218 Level FlightAware ADS-B
Fri 12:37:37 PM -32.0355 115.0744 123° Southeast 520 598 40,200  Climbing Aus ATC (RADAR)
Fri 12:38:02 PM -32.0590 115.1270 123° Southeast 534 615 40,000  Descending FlightAware ADS-B
Fri 12:38:42 PM -32.1134 115.2395 123° Southeast 518 596 40,200  Climbing Aus ATC (RADAR)
Fri 12:38:47 PM -32.1130 115.2410 123° Southeast 534 615 40,000 -267 Descending FlightAware ADS-B
Fri 12:39:27 PM -32.1610 115.3430 119° Southeast 533 613 40,000 185 Level FlightAware ADS-B
Fri 12:39:52 PM -32.1967 115.4175 119° Southeast 516 594 40,200  Climbing Aus ATC (RADAR)
Fri 12:40:02 PM -32.2030 115.4330 119° Southeast 533 613 40,000  Descending FlightAware ADS-B
Fri 12:40:52 PM -32.2683 115.5703 119° Southeast 519 597 40,200  Climbing Aus ATC (RADAR)
Fri 12:40:52 PM -32.2620 115.5590 119° Southeast 533 613 40,000 -300 Descending FlightAware ADS-B
Fri 12:41:32 PM -32.3080 115.6570 119° Southeast 533 613 40,000 200 Level FlightAware ADS-B
Fri 12:41:52 PM -32.3396 115.7229 119° Southeast 516 594 40,200  Climbing Aus ATC (RADAR)
Fri 12:42:02 PM -32.3450 115.7370 119° Southeast 534 615 40,000 -218 Descending FlightAware ADS-B
Fri 12:42:47 PM -32.3980 115.8510 119° Southeast 533 613 40,000 200 Level FlightAware ADS-B
Fri 12:43:02 PM -32.4224 115.9028 119° Southeast 519 597 40,200  Climbing Aus ATC (RADAR)
Fri 12:43:27 PM -32.4450 115.9550 119° Southeast 534 615 40,000  Descending FlightAware ADS-B
Fri 12:44:07 PM -32.4989 116.0699 119° Southeast 520 598 40,200  Climbing Aus ATC (RADAR)
Fri 12:44:07 PM -32.4910 116.0540 119° Southeast 534 615 40,000 -267 Descending FlightAware ADS-B
Fri 12:44:52 PM -32.5440 116.1700 118° Southeast 534 615 40,000 188 Level FlightAware ADS-B
Fri 12:45:11 PM -32.5753 116.2367 118° Southeast 519 597 40,200  Climbing Aus ATC (RADAR)
Fri 12:45:32 PM -32.5920 116.2750 118° Southeast 530 610 40,000 -182 Descending FlightAware ADS-B
Fri 12:46:17 PM -32.6450 116.3910 119° Southeast 527 606 40,000  Level FlightAware ADS-B
Fri 12:46:52 PM -32.6850 116.4800 118° Southeast 526 605 40,000 188 Level FlightAware ADS-B
Fri 12:47:21 PM -32.7267 116.5694 118° Southeast 518 596 40,200  Climbing Aus ATC (RADAR)
Fri 12:47:32 PM -32.7310 116.5810 118° Southeast 526 605 40,000 -214 Descending FlightAware ADS-B
Fri 12:48:17 PM -32.7850 116.7000 118° Southeast 527 606 40,000 174 Level FlightAware ADS-B
Fri 12:48:41 PM -32.8191 116.7744 118° Southeast 514 592 40,200  Climbing Aus ATC (RADAR)
Fri 12:48:57 PM -32.8330 116.8060 118° Southeast 527 606 40,000  Descending FlightAware ADS-B
Fri 12:49:21 PM -32.8650 116.8773 118° Southeast 516 594 40,200  Climbing Aus ATC (RADAR)
Fri 12:49:37 PM -32.8800 116.9110 118° Southeast 525 604 40,000 -197 Descending FlightAware ADS-B
Fri 12:50:22 PM -32.9320 117.0280 118° Southeast 523 602 40,000  Level FlightAware ADS-B
Fri 12:50:57 PM -32.9680 117.1070 119° Southeast 523 602 40,000 152 Level FlightAware ADS-B
Fri 12:51:41 PM -33.0251 117.2353 119° Southeast 512 589 40,200  Climbing Aus ATC (RADAR)
Fri 12:51:47 PM -33.0280 117.2430 119° Southeast 524 603 40,000 -261 Descending FlightAware ADS-B
Fri 12:52:27 PM -33.0750 117.3480 118° Southeast 526 605 40,000  Level FlightAware ADS-B
Fri 12:53:07 PM -33.1200 117.4510 118° Southeast 525 604 40,000 174 Level FlightAware ADS-B
Fri 12:53:36 PM -33.1561 117.5292 118° Southeast 514 592 40,200  Climbing Aus ATC (RADAR)
Fri 12:53:52 PM -33.1710 117.5650 118° Southeast 526 605 40,000 -214 Descending FlightAware ADS-B
Fri 12:54:32 PM -33.2160 117.6670 118° Southeast 526 605 40,000 190 Level FlightAware ADS-B
Fri 12:54:55 PM -33.2457 117.7351 118° Southeast 514 592 40,200  Climbing Aus ATC (RADAR)
Fri 12:55:17 PM -33.2680 117.7860 118° Southeast 528 608 40,000  Descending FlightAware ADS-B
Fri 12:55:55 PM -33.3140 117.8898 118° Southeast 516 594 40,200  Climbing Aus ATC (RADAR)
Fri 12:55:57 PM -33.3120 117.8880 118° Southeast 530 610 40,000 -286 Descending FlightAware ADS-B
Fri 12:56:37 PM -33.3580 117.9930 118° Southeast 529 609 40,000 190 Level FlightAware ADS-B
Fri 12:57:00 PM -33.3879 118.0579 118° Southeast 520 598 40,200 136 Climbing Aus ATC (RADAR)
Fri 12:58:05 PM -33.4597 118.2283 117° Southeast 521 600 40,200 -156 Level Aus ATC (RADAR)
Fri 12:58:17 PM -33.4680 118.2450 117° Southeast 532 612 40,000 -231 Descending FlightAware ADS-B
Fri 12:58:57 PM -33.5110 118.3460 117° Southeast 530 610 40,000 207 Level FlightAware ADS-B
Fri 12:59:15 PM -33.5392 118.4098 117° Southeast 517 595 40,200  Climbing Aus ATC (RADAR)
Fri 12:59:32 PM -33.5520 118.4420 117° Southeast 529 609 40,000 -255 Descending FlightAware ADS-B
Fri 01:00:02 PM -33.5860 118.5200 118° Southeast 530 610 40,000  Level FlightAware ADS-B
Fri 01:00:47 PM -33.6360 118.6360 117° Southeast 530 610 40,000 145 Level FlightAware ADS-B
Fri 01:01:25 PM -33.6816 118.7515 117° Southeast 522 601 40,200  Climbing Aus ATC (RADAR)
Fri 01:01:27 PM -33.6820 118.7450 117° Southeast 530 610 40,000 -255 Descending FlightAware ADS-B
Fri 01:02:12 PM -33.7270 118.8500 117° Southeast 530 610 40,000  Level FlightAware ADS-B
Fri 01:02:47 PM -33.7630 118.9380 116° Southeast 530 610 40,000 82 Level FlightAware ADS-B
Fri 01:03:25 PM -33.8164 119.0630 116° Southeast 518 596 40,100  Climbing Aus ATC (RADAR)
Fri 01:03:32 PM -33.8140 119.0570 116° Southeast 40,000 -109 Descending FlightAware ADS-B
Fri 01:04:20 PM -33.8480 119.1470 114° Southeast 530 610 40,000  Level FlightAware ADS-B
Fri 01:04:52 PM -33.8770 119.2200 116° Southeast 530 610 40,000 81 Level FlightAware ADS-B
Fri 01:05:34 PM -33.9610 119.4018 116° Southeast 519 597 40,100  Climbing Aus ATC (RADAR)
Fri 01:05:38 PM -33.9190 119.3240 116° Southeast 530 610 40,000  Descending FlightAware ADS-B
Fri 01:07:39 PM -34.0909 119.7361 116° Southeast 523 602 40,100 36 Climbing Aus ATC (RADAR)
Fri 01:08:24 PM -34.1397 119.8535 117° Southeast 521 600 40,100 10 Level Aus ATC (RADAR)
Fri 01:11:46 PM -34.3271 120.4179 108° East 39,000 10 Descending Aus ATC (Calculated)
Fri 01:16:39 PM -34.5984 121.2535 108° East 39,000 24 Level Aus ATC (Calculated)
Fri 01:18:56 PM -34.7145 121.6184 107° East 39,000 26 Level Aus ATC (Calculated)
Fri 01:21:38 PM -34.8627 122.0909 107° East 39,000 26 Level Aus ATC (Calculated)
Fri 01:23:48 PM -34.9746 122.4527 107° East 39,000 27 Level Aus ATC (Calculated)
Fri 01:26:43 PM -35.1084 122.8912 106° East 39,000 28 Level Aus ATC (Calculated)
Fri 01:28:52 PM -35.1954 123.1797 106° East 39,000 29 Level Aus ATC (Calculated)
Fri 01:31:42 PM -35.3513 123.7042 105° East 39,000 30 Level Aus ATC (Calculated)
Fri 01:35:00 PM -35.5176 124.2747 105° East 39,000 32 Level Aus ATC (Calculated)
Fri 01:35:34 PM -35.5485 124.3819 105° East 39,000 33 Level Aus ATC (Calculated)
Fri 01:36:42 PM -35.6044 124.5769 105° East 39,000 34 Level Aus ATC (Calculated)
Fri 01:37:33 PM -35.6548 124.7540 104° East 39,000 34 Level Aus ATC (Calculated)
Fri 01:39:41 PM -35.7641 125.1422 104° East 39,000 35 Level Aus ATC (Calculated)
Fri 01:41:33 PM -35.8533 125.4633 103° East 39,000 36 Level Aus ATC (Calculated)
Fri 01:44:36 PM -35.9818 125.9328 103° East 39,000 38 Level Aus ATC (Calculated)
Fri 01:45:21 PM -36.0179 126.0925 103° East 41,000 40 Climbing Aus ATC (Calculated)
Fri 01:47:11 PM -36.0712 126.3703 103° East 41,000  Level Aus ATC (Calculated)
Fri 01:49:45 PM -36.1413 126.7413 102° East 41,000  Level Aus ATC (Calculated)
Fri 01:50:40 PM -36.1759 126.9271 102° East 41,000  Level Aus ATC (Calculated)
Fri 01:52:45 PM -36.2443 127.2991 102° East 41,000  Level Aus ATC (Calculated)
Fri 02:02:08 PM -36.5062 128.7933 101° East 41,000  Level Aus ATC (Calculated)
Fri 02:02:24 PM -36.5219 128.8870 101° East 41,000  Level Aus ATC (Calculated)
Fri 02:20:39 PM -36.9867 131.9051 98° East 41,000  Level Aus ATC (Calculated)
Fri 02:21:06 PM -37.0000 132.0000 97° East 41,000  Level Aus ATC (Calculated)
Fri 02:32:10 PM -37.1704 133.7717 96° East 41,000  Level Aus ATC (Calculated)
Fri 02:34:45 PM -37.2155 134.2960 97° East 476 548 41,000  Level Aus ATC (RADAR)
Fri 02:36:55 PM -37.2419 134.6470 96° East 477 549 41,000  Level Aus ATC (RADAR)
Fri 02:38:00 PM -37.2589 134.8273 97° East 483 556 41,000  Level Aus ATC (RADAR)
Fri 02:39:05 PM -37.2733 135.0072 96° East 482 555 41,000  Level Aus ATC (RADAR)
Fri 02:40:10 PM -37.2865 135.1862 95° East 479 551 41,000  Level Aus ATC (RADAR)
Fri 02:41:10 PM -37.2989 135.3529 95° East 482 555 41,000  Level Aus ATC (RADAR)
Fri 02:42:20 PM -37.3140 135.5484 96° East 485 558 41,000  Level Aus ATC (RADAR)
Fri 02:43:20 PM -37.3261 135.7153 95° East 483 556 41,000  Level Aus ATC (RADAR)
Fri 02:44:55 PM -37.3449 135.9808 95° East 483 556 41,000  Level Aus ATC (RADAR)
Fri 02:45:54 PM -37.3564 136.1463 95° East 481 554 41,000  Level Aus ATC (RADAR)
Fri 02:46:59 PM -37.3687 136.3264 95° East 481 554 41,000  Level Aus ATC (RADAR)
Fri 02:48:09 PM -37.3814 136.5196 95° East 477 549 41,000  Level Aus ATC (RADAR)
Fri 02:49:09 PM -37.3920 136.6837 95° East 474 545 41,000 100 Level Aus ATC (RADAR)
Fri 02:50:09 PM -37.4019 136.8474 94° East 474 545 41,200 100 Climbing Aus ATC (RADAR)
Fri 02:51:09 PM -37.4122 137.0107 95° East 470 541 41,200  Level Aus ATC (RADAR)
Fri 02:52:14 PM -37.4227 137.1862 94° East 466 536 41,200  Level Aus ATC (RADAR)
Fri 02:53:14 PM -37.4323 137.3460 94° East 461 531 41,200  Level Aus ATC (RADAR)
Fri 02:54:24 PM -37.4432 137.5331 94° East 461 531 41,200  Level Aus ATC (RADAR)
Fri 02:55:24 PM -37.4519 137.6909 94° East 454 522 41,200  Level Aus ATC (RADAR)
Fri 02:56:28 PM -37.4615 137.8644 94° East 460 529 41,200  Level Aus ATC (RADAR)
Fri 02:57:28 PM -37.4702 138.0260 94° East 466 536 41,200  Level Aus ATC (RADAR)
Fri 02:58:28 PM -37.4782 138.1862 94° East 462 532 41,200  Level Aus ATC (RADAR)
Fri 02:59:28 PM -37.4875 138.3520 94° East 477 549 41,200  Level Aus ATC (RADAR)
Fri 03:01:08 PM -37.5201 138.6223 99° East 473 544 41,200  Level Aus ATC (RADAR)
Fri 03:02:13 PM -37.5407 138.7952 99° East 463 533 41,200  Level Aus ATC (RADAR)
Fri 03:03:13 PM -37.5590 138.9579 98° East 467 537 41,200  Level Aus ATC (RADAR)
Fri 03:04:13 PM -37.5772 139.1201 98° East 468 539 41,200  Level Aus ATC (RADAR)
Fri 03:05:18 PM -37.5969 139.2948 98° East 464 534 41,200  Level Aus ATC (RADAR)
Fri 03:06:22 PM -37.6159 139.4707 98° East 467 537 41,200  Level Aus ATC (RADAR)
Fri 03:07:27 PM -37.6349 139.6443 98° East 464 534 41,200  Level Aus ATC (RADAR)
Fri 03:08:27 PM -37.6519 139.8046 98° East 462 532 41,200  Level Aus ATC (RADAR)
Fri 03:09:37 PM -37.6717 139.9932 98° East 465 535 41,200  Level Aus ATC (RADAR)
Fri 03:10:37 PM -37.6885 140.1546 98° East 465 535 41,200 -169 Level Aus ATC (RADAR)
Fri 03:10:48 PM -37.6900 140.1770 98° East 464 534 41,000 -261 Descending FlightAware ADS-B
Fri 03:11:23 PM -37.7000 140.2700 98° East 465 535 41,000 222 Level FlightAware ADS-B
Fri 03:11:42 PM -37.7065 140.3293 98° East 464 534 41,200  Climbing Aus ATC (RADAR)
Fri 03:11:58 PM -37.7090 140.3660 98° East 466 536 41,000  Descending FlightAware ADS-B
Fri 03:12:42 PM -37.7231 140.4916 98° East 467 537 41,200  Climbing Aus ATC (RADAR)
Fri 03:12:43 PM -37.7220 140.4870 98° East 469 540 41,000 -293 Descending FlightAware ADS-B
Fri 03:13:23 PM -37.7330 140.5960 97° East 471 542 41,000 188 Level FlightAware ADS-B
Fri 03:13:47 PM -37.7403 140.6689 97° East 471 542 41,200  Climbing Aus ATC (RADAR)
Fri 03:14:03 PM -37.7430 140.7040 97° East 472 543 41,000 -197 Descending FlightAware ADS-B
Fri 03:14:48 PM -37.7530 140.8290 96° East 473 544 41,000 -494 Level FlightAware ADS-B
Fri 03:15:28 PM -37.7570 140.9390 93° East 459 528 40,300 -975 Descending FlightAware ADS-B
Fri 03:16:08 PM -37.7610 141.0430 93° East 446 513 39,700 -692 Descending FlightAware ADS-B
Fri 03:16:46 PM -37.7664 141.1494 93° East 439 505 39,400 -933 Descending Aus ATC (RADAR)
Fri 03:16:53 PM -37.7660 141.1620 93° East 444 511 39,000 -1,404 Descending FlightAware ADS-B
Fri 03:17:33 PM -37.7700 141.2630 93° East 446 513 38,300 -724 Descending FlightAware ADS-B
Fri 03:17:51 PM -37.7727 141.3182 93° East 444 511 38,300 -960 Level Aus ATC (RADAR)
Fri 03:17:58 PM -37.7720 141.3270 93° East 449 517 37,900 -1,277 Descending FlightAware ADS-B
Fri 03:18:38 PM -37.7760 141.4330 93° East 448 516 37,300 -621 Descending FlightAware ADS-B
Fri 03:18:56 PM -37.7792 141.4879 93° East 446 513 37,300 -1,067 Level Aus ATC (RADAR)
Fri 03:19:23 PM -37.7800 141.5510 93° East 453 521 36,500 -1,015 Descending FlightAware ADS-B
Fri 03:20:01 PM -37.7852 141.6596 93° East 450 518 36,200 -900 Descending Aus ATC (RADAR)
Fri 03:20:03 PM -37.7840 141.6580 93° East 456 525 35,900 -1,429 Descending FlightAware ADS-B
Fri 03:20:43 PM -37.7880 141.7640 93° East 459 528 35,200 -769 Descending FlightAware ADS-B
Fri 03:21:21 PM -37.7915 141.8723 93° East 452 520 34,900 -900 Descending Aus ATC (RADAR)
Fri 03:21:23 PM -37.7910 141.8710 93° East 454 522 34,600 -1,404 Descending FlightAware ADS-B
Fri 03:22:08 PM -37.7950 141.9890 92° East 454 522 33,800 -1,271 Descending FlightAware ADS-B
Fri 03:22:48 PM -37.7980 142.0980 92° East 469 540 32,800 -1,429 Descending FlightAware ADS-B
Fri 03:23:11 PM -37.8013 142.1665 92° East 461 531 32,300 -1,800 Descending Aus ATC (RADAR)
Fri 03:23:28 PM -37.8010 142.2050 92° East 462 532 31,600 -2,000 Descending FlightAware ADS-B
Fri 03:24:08 PM -37.8040 142.3110 92° East 457 526 30,400 -1,676 Descending FlightAware ADS-B
Fri 03:24:36 PM -37.8063 142.3932 92° East 448 516 29,700 -2,000 Descending Aus ATC (RADAR)
Fri 03:24:38 PM -37.8070 142.3920 92° East 452 520 29,400 -2,043 Descending FlightAware ADS-B
Fri 03:25:23 PM -37.8100 142.5100 92° East 450 518 28,100 -1,765 Descending FlightAware ADS-B
Fri 03:26:03 PM -37.8120 142.6160 91° East 449 517 26,900 -1,562 Descending FlightAware ADS-B
Fri 03:26:36 PM -37.8146 142.7072 91° East 441 507 26,200 -1,733 Descending Aus ATC (RADAR)
Fri 03:26:48 PM -37.8150 142.7290 91° East 443 510 25,600 -1,962 Descending FlightAware ADS-B
Fri 03:27:28 PM -37.8180 142.8350 92° East 435 501 24,500 -1,694 Descending FlightAware ADS-B
Fri 03:28:13 PM -37.8210 142.9480 92° East 425 489 23,200 -1,500 Descending FlightAware ADS-B
Fri 03:28:40 PM -37.8221 143.0215 92° East 416 479 22,700 -1,650 Descending Aus ATC (RADAR)
Fri 03:28:53 PM -37.8230 143.0470 92° East 416 479 22,100 -1,925 Descending FlightAware ADS-B
Fri 03:29:33 PM -37.8250 143.1440 92° East 420 483 21,000 -1,624 Descending FlightAware ADS-B
Fri 03:30:18 PM -37.8270 143.2530 91° East 412 474 19,800 -1,624 Descending FlightAware ADS-B
Fri 03:30:58 PM -37.8290 143.3470 92° East 405 466 18,700 -1,575 Descending FlightAware ADS-B
Fri 03:31:38 PM -37.8310 143.4420 92° East 405 466 17,700 -1,543 Descending FlightAware ADS-B
Fri 03:32:08 PM -37.8320 143.5140 91° East 405 466 16,900 -1,477 Descending FlightAware ADS-B
Fri 03:32:43 PM -37.8340 143.5950 92° East 401 461 16,100 -1,575 Descending FlightAware ADS-B
Fri 03:33:28 PM -37.8350 143.7010 91° East 396 456 14,800 -1,650 Descending FlightAware ADS-B
Fri 03:34:03 PM -37.8370 143.7830 92° East 396 456 13,900 -1,433 Descending FlightAware ADS-B
Fri 03:34:35 PM -37.8380 143.8603 92° East 387 445 13,200 -1,600 Descending Aus ATC (RADAR)
Fri 03:34:48 PM -37.8380 143.8850 92° East 386 444 12,700 -1,875 Descending FlightAware ADS-B
Fri 03:35:23 PM -37.8390 143.9620 91° East 375 432 11,700 -1,765 Descending FlightAware ADS-B
Fri 03:36:13 PM -37.8290 144.0670 83° East 365 420 10,200 -1,920 Descending FlightAware ADS-B
Fri 03:36:38 PM -37.8230 144.1220 82° East 364 419 9,300 -1,532 Descending FlightAware ADS-B
Fri 03:37:00 PM -37.8175 144.1720 82° East 357 411 9,000 -1,200 Descending Aus ATC (RADAR)
Fri 03:37:08 PM -37.8160 144.1840 82° East 349 402 8,700 -545 Descending FlightAware ADS-B
Fri 03:37:33 PM -37.8100 144.2340 81° East 323 372 8,700 -231 Level FlightAware ADS-B
Fri 03:38:00 PM -37.8042 144.2856 81° East 316 364 8,500 -1,200 Descending Aus ATC (RADAR)
Fri 03:38:03 PM -37.8040 144.2870 81° East 313 360 8,100 -2,143 Descending FlightAware ADS-B
Fri 03:38:28 PM -37.7990 144.3330 82° East 312 359 7,500 -1,091 Descending FlightAware ADS-B
Fri 03:38:58 PM -37.7930 144.3800 81° East 299 344 7,100 -700 Descending FlightAware ADS-B
Fri 03:39:28 PM -37.7870 144.4290 81° East 277 319 6,800 -545 Descending FlightAware ADS-B
Fri 03:39:53 PM -37.7870 144.4690 90° East 258 297 6,600 -146 Descending FlightAware ADS-B
Fri 03:40:09 PM -37.7916 144.5004 90° East 252 290 6,700 -720 Climbing Aus ATC (RADAR)
Fri 03:40:18 PM -37.7920 144.5050 90° East 237 273 6,300 -2,000 Descending FlightAware ADS-B
Fri 03:40:48 PM -37.7970 144.5440 99° East 229 264 5,400 -1,680 Descending FlightAware ADS-B
Fri 03:41:08 PM -37.8000 144.5710 99° East 232 267 4,900 -923 Descending FlightAware ADS-B
Fri 03:41:14 PM -37.8020 144.5868 99° East 226 260 5,000 -1,200 Climbing Aus ATC (RADAR)
Fri 03:41:43 PM -37.8060 144.6180 99° East 233 268 4,200 -1,108 Descending FlightAware ADS-B
Fri 03:42:19 PM -37.8130 144.6735 99° East 226 260 3,800 -1,050 Descending Aus ATC (RADAR)
Fri 03:42:23 PM -37.8130 144.6720 99° East 226 260 3,500 -1,263 Descending FlightAware ADS-B
Fri 03:42:38 PM -37.8150 144.6910 98° East 218 251 3,400 -450 Descending FlightAware ADS-B
Fri 03:43:03 PM -37.8190 144.7210 100° East 202 232 3,200  Descending FlightAware ADS-B
Fri 03:43:24 PM -37.8287 144.7488 100° East 197 227 3,400 -480 Climbing Aus ATC (RADAR)
Fri 03:43:28 PM -37.8280 144.7470 100° East 190 219 3,000 -1,235 Descending FlightAware ADS-B
Fri 03:43:58 PM -37.8410 144.7770 119° Southeast 189 217 2,700 -400 Descending FlightAware ADS-B
Fri 03:44:13 PM -37.8440 144.7900 106° East 187 215 2,700  Level FlightAware ADS-B
Fri 03:44:38 PM -37.8400 144.8180 80° East 172 198 2,700  Level FlightAware ADS-B
Fri 03:45:08 PM -37.8370 144.8480 83° East 172 198 2,700  Level FlightAware ADS-B
Fri 03:45:23 PM -37.8310 144.8610 60° Northeast 169 194 2,700  Level FlightAware ADS-B
Fri 03:45:33 PM -37.8240 144.8640 19° North 167 192 2,700 -240 Level FlightAware ADS-B
Fri 03:45:48 PM -37.8120 144.8650 North 170 196 2,600 -667 Descending FlightAware ADS-B
Fri 03:46:18 PM -37.7910 144.8610 351° North 158 182 2,200 -840 Descending FlightAware ADS-B
Fri 03:46:38 PM -37.7770 144.8580 350° North 149 171 1,900 -588 Descending FlightAware ADS-B
Fri 03:47:09 PM -37.7523 144.8532 350° North 141 162 1,700 -857 Descending Aus ATC (RADAR)
Fri 03:47:13 PM -37.7520 144.8530 350° North 130 150 1,400 -1,500 Descending FlightAware ADS-B
Fri 03:47:33 PM -37.7390 144.8510 353° North 129 148 1,100 -857 Descending FlightAware ADS-B
Fri 03:47:48 PM -37.7300 144.8490 350° North 129 148 900 -171 Descending FlightAware ADS-B
Fri 03:48:08 PM -37.7146 144.8462 350° North 136 157 1,000 -600 Climbing Aus ATC (RADAR)
Fri 03:48:18 PM -37.7110 144.8460 350° North 132 152 600 -1,200 Descending FlightAware ADS-B
Fri 03:48:43 PM -37.6960 144.8430 351° North 128 147 300 -327 Descending FlightAware ADS-B
Fri 03:49:13 PM -37.6800 144.8400 351° North 122 140  Descending FlightAware ADS-B
Fri 03:49:13 PM -37.6765 144.8392 351° North 126 145 300  Climbing Aus ATC (RADAR)

Login

Don't have an account? Register now (free) for customized features, flight alerts, and more!